PWSweather.com
Personal Weather Stations
Station Observations
KCOGRAND2
Redlands, Southcamp Road & Dakota Circle, Grand Junction, CO 81507

Redlands, Southcamp Road & Dakota CircleGrand Junction, CO 81507

Lat: 39.055, Lon: -108.637

Elevation: 4870

Station Type: RadioShack WX200

Latest ConditionsUpdated 8:47:30 PM MST Sunday, Feb 19, 2017
Currently Today's Max Today's Min Today's Average
Temperature 41.0°F5.0°C 48.7°F9.3°C 34.5°F1.4°C 40.9°F4.9°C
Dew Point 39.9°F4.4°C 43.0°F6.1°C 26.4°F-3.1°C 36.7°F2.6°C
Winds Calm Calm 9.0 mph S14.5 kmh S - 2.7 mph 4.3 kmh
Wind Gusts 2.7 mph4.3 kmh 12.1 mph19.5 kmh - -
Humidity 96% 96% 42% 86%
Pressure 24.95 in844.9 mb 24.95 in844.9 mb 24.75 in838.1 mb -
Hour Temp Dew Point Humidity Winds Wind Gusts Pressure Precip Precip Rate Daily Precip Total
08:47 PM 41.0°F5.0°C 39.9°F4.4°C 96% Calm Calm 2.7 mph4.3 kmh 24.95 in844.9 mb 0.00 in0.0 mm 0.00 in0.0 mm 0.00 in0.0 mm
08:42 PM 41.2°F5.1°C 40.1°F4.5°C 96% 1.0 mph S1.6 kmh S 3.1 mph5.0 kmh 24.95 in844.9 mb 0.00 in0.0 mm 0.00 in0.0 mm 0.00 in0.0 mm
08:37 PM 41.2°F5.1°C 40.1°F4.5°C 96% 3.0 mph S4.8 kmh S 4.9 mph7.9 kmh 24.95 in844.9 mb 0.00 in0.0 mm 0.00 in0.0 mm 0.00 in0.0 mm
08:32 PM 41.2°F5.1°C 40.1°F4.5°C 96% 4.0 mph SSW6.4 kmh SSW 6.9 mph11.1 kmh 24.95 in844.9 mb 0.00 in0.0 mm 0.00 in0.0 mm 0.00 in0.0 mm
08:27 PM 41.2°F5.1°C 40.1°F4.5°C 96% 4.0 mph SW6.4 kmh SW 6.7 mph10.8 kmh 24.92 in843.9 mb 0.00 in0.0 mm 0.00 in0.0 mm 0.00 in0.0 mm
08:22 PM 41.4°F5.2°C 40.3°F4.6°C 96% 2.0 mph SSW3.2 kmh SSW 6.3 mph10.1 kmh 24.92 in843.9 mb 0.00 in0.0 mm 0.00 in0.0 mm 0.00 in0.0 mm
08:17 PM 41.2°F5.1°C 39.9°F4.4°C 95% 1.0 mph S1.6 kmh S 4.5 mph7.2 kmh 24.92 in843.9 mb 0.00 in0.0 mm 0.00 in0.0 mm 0.00 in0.0 mm
08:12 PM 41.4°F5.2°C 40.1°F4.5°C 95% 2.0 mph S3.2 kmh S 3.1 mph5.0 kmh 24.92 in843.9 mb 0.00 in0.0 mm 0.00 in0.0 mm 0.00 in0.0 mm
08:07 PM 41.4°F5.2°C 40.1°F4.5°C 95% 2.0 mph S3.2 kmh S 4.0 mph6.4 kmh 24.92 in843.9 mb 0.00 in0.0 mm 0.00 in0.0 mm 0.00 in0.0 mm
08:02 PM 41.4°F5.2°C 40.1°F4.5°C 95% 3.0 mph S4.8 kmh S 3.6 mph5.8 kmh 24.92 in843.9 mb 0.00 in0.0 mm 0.00 in0.0 mm 0.00 in0.0 mm
07:57 PM 41.4°F5.2°C 40.1°F4.5°C 95% 5.0 mph S8.0 kmh S 6.9 mph11.1 kmh 24.92 in843.9 mb 0.00 in0.0 mm 0.00 in0.0 mm 0.00 in0.0 mm
07:52 PM 41.5°F5.3°C 40.3°F4.6°C 95% 4.0 mph S6.4 kmh S 7.4 mph11.9 kmh 24.92 in843.9 mb 0.00 in0.0 mm 0.00 in0.0 mm 0.00 in0.0 mm
07:47 PM 41.5°F5.3°C 40.3°F4.6°C 95% 4.0 mph S6.4 kmh S 5.4 mph8.7 kmh 24.92 in843.9 mb 0.00 in0.0 mm 0.00 in0.0 mm 0.00 in0.0 mm
07:42 PM 41.5°F5.3°C 39.9°F4.4°C 94% 4.0 mph S6.4 kmh S 5.8 mph9.3 kmh 24.92 in843.9 mb 0.00 in0.0 mm 0.00 in0.0 mm 0.00 in0.0 mm
07:37 PM 41.7°F5.4°C 40.1°F4.5°C 94% 5.0 mph S8.0 kmh S 6.9 mph11.1 kmh 24.92 in843.9 mb 0.00 in0.0 mm 0.00 in0.0 mm 0.00 in0.0 mm
07:32 PM 41.7°F5.4°C 40.1°F4.5°C 94% 5.0 mph S8.0 kmh S 7.4 mph11.9 kmh 24.92 in843.9 mb 0.00 in0.0 mm 0.00 in0.0 mm 0.00 in0.0 mm
07:27 PM 41.7°F5.4°C 39.9°F4.4°C 93% 6.0 mph SSW9.7 kmh SSW 7.8 mph12.6 kmh 24.89 in842.9 mb 0.00 in0.0 mm 0.00 in0.0 mm 0.00 in0.0 mm
07:22 PM 41.9°F5.5°C 40.1°F4.5°C 93% 4.0 mph S6.4 kmh S 9.6 mph15.4 kmh 24.89 in842.9 mb 0.00 in0.0 mm 0.00 in0.0 mm 0.00 in0.0 mm
07:17 PM 42.1°F5.6°C 40.5°F4.7°C 94% 1.0 mph S1.6 kmh S 4.9 mph7.9 kmh 24.89 in842.9 mb 0.00 in0.0 mm 0.00 in0.0 mm 0.00 in0.0 mm
07:12 PM 41.7°F5.4°C 40.1°F4.5°C 94% 1.0 mph S1.6 kmh S -- 24.89 in842.9 mb 0.00 in0.0 mm 0.00 in0.0 mm 0.00 in0.0 mm
07:07 PM 41.9°F5.5°C 40.3°F4.6°C 94% 1.0 mph S1.6 kmh S 3.6 mph5.8 kmh 24.89 in842.9 mb 0.00 in0.0 mm 0.00 in0.0 mm 0.00 in0.0 mm
07:02 PM 41.7°F5.4°C 40.1°F4.5°C 94% Calm Calm 3.1 mph5.0 kmh 24.89 in842.9 mb 0.00 in0.0 mm 0.00 in0.0 mm 0.00 in0.0 mm
06:57 PM 41.7°F5.4°C 40.1°F4.5°C 94% Calm Calm -- 24.89 in842.9 mb 0.00 in0.0 mm 0.00 in0.0 mm 0.00 in0.0 mm
06:52 PM 41.7°F5.4°C 40.1°F4.5°C 94% Calm Calm -- 24.89 in842.9 mb 0.00 in0.0 mm 0.00 in0.0 mm 0.00 in0.0 mm
06:47 PM 41.5°F5.3°C 39.9°F4.4°C 94% Calm Calm -- 24.89 in842.9 mb 0.00 in0.0 mm 0.00 in0.0 mm 0.00 in0.0 mm
06:42 PM 41.7°F5.4°C 40.1°F4.5°C 94% Calm Calm -- 24.89 in842.9 mb 0.00 in0.0 mm 0.00 in0.0 mm 0.00 in0.0 mm
06:37 PM 41.5°F5.3°C 39.9°F4.4°C 94% Calm Calm -- 24.89 in842.9 mb 0.00 in0.0 mm 0.00 in0.0 mm 0.00 in0.0 mm
06:32 PM 41.5°F5.3°C 40.3°F4.6°C 95% 1.0 mph S1.6 kmh S 3.1 mph5.0 kmh 24.89 in842.9 mb 0.00 in0.0 mm 0.00 in0.0 mm 0.00 in0.0 mm
06:27 PM 41.5°F5.3°C 40.3°F4.6°C 95% 2.0 mph S3.2 kmh S 4.5 mph7.2 kmh 24.89 in842.9 mb 0.00 in0.0 mm 0.00 in0.0 mm 0.00 in0.0 mm
06:22 PM 41.7°F5.4°C 40.5°F4.7°C 95% 2.0 mph SSE3.2 kmh SSE 4.5 mph7.2 kmh 24.89 in842.9 mb 0.00 in0.0 mm 0.00 in0.0 mm 0.00 in0.0 mm
06:17 PM 41.9°F5.5°C 40.3°F4.6°C 94% 2.0 mph SSE3.2 kmh SSE 3.6 mph5.8 kmh 24.89 in842.9 mb 0.00 in0.0 mm 0.00 in0.0 mm 0.00 in0.0 mm
06:12 PM 41.9°F5.5°C 40.3°F4.6°C 94% 2.0 mph SSE3.2 kmh SSE 3.6 mph5.8 kmh 24.86 in841.9 mb 0.00 in0.0 mm 0.00 in0.0 mm 0.00 in0.0 mm
06:07 PM 42.1°F5.6°C 40.5°F4.7°C 94% 3.0 mph SSE4.8 kmh SSE 4.9 mph7.9 kmh 24.86 in841.9 mb 0.00 in0.0 mm 0.00 in0.0 mm 0.00 in0.0 mm
06:02 PM 42.1°F5.6°C 40.5°F4.7°C 94% 3.0 mph SSE4.8 kmh SSE 4.9 mph7.9 kmh 24.86 in841.9 mb 0.00 in0.0 mm 0.00 in0.0 mm 0.00 in0.0 mm
05:57 PM 41.9°F5.5°C 40.3°F4.6°C 94% 2.0 mph SSE3.2 kmh SSE 4.0 mph6.4 kmh 24.86 in841.9 mb 0.00 in0.0 mm 0.00 in0.0 mm 0.00 in0.0 mm
05:52 PM 42.1°F5.6°C 40.5°F4.7°C 94% 3.0 mph SSE4.8 kmh SSE 4.5 mph7.2 kmh 24.86 in841.9 mb 0.00 in0.0 mm 0.00 in0.0 mm 0.00 in0.0 mm
05:47 PM 42.1°F5.6°C 40.5°F4.7°C 94% 4.0 mph SSE6.4 kmh SSE 4.5 mph7.2 kmh 24.86 in841.9 mb 0.00 in0.0 mm 0.00 in0.0 mm 0.00 in0.0 mm
05:42 PM 42.1°F5.6°C 40.5°F4.7°C 94% 3.0 mph SSE4.8 kmh SSE 5.8 mph9.3 kmh 24.86 in841.9 mb 0.00 in0.0 mm 0.00 in0.0 mm 0.00 in0.0 mm
05:37 PM 42.3°F5.7°C 40.6°F4.8°C 94% 3.0 mph SE4.8 kmh SE 4.5 mph7.2 kmh 24.86 in841.9 mb 0.00 in0.0 mm 0.00 in0.0 mm 0.00 in0.0 mm
05:32 PM 42.4°F5.8°C 40.8°F4.9°C 94% 4.0 mph SE6.4 kmh SE 5.4 mph8.7 kmh 24.86 in841.9 mb 0.00 in0.0 mm 0.00 in0.0 mm 0.00 in0.0 mm
05:27 PM 42.6°F5.9°C 40.8°F4.9°C 93% 4.0 mph SSE6.4 kmh SSE 5.4 mph8.7 kmh 24.86 in841.9 mb 0.00 in0.0 mm 0.00 in0.0 mm 0.00 in0.0 mm
05:22 PM 42.8°F6.0°C 41.0°F5.0°C 93% 4.0 mph SSE6.4 kmh SSE 6.3 mph10.1 kmh 24.86 in841.9 mb 0.00 in0.0 mm 0.00 in0.0 mm 0.00 in0.0 mm
05:17 PM 43.0°F6.1°C 41.2°F5.1°C 93% 4.0 mph SSE6.4 kmh SSE 5.4 mph8.7 kmh 24.86 in841.9 mb 0.00 in0.0 mm 0.00 in0.0 mm 0.00 in0.0 mm
05:12 PM 43.3°F6.3°C 41.2°F5.1°C 92% 5.0 mph SSE8.0 kmh SSE 6.7 mph10.8 kmh 24.86 in841.9 mb 0.00 in0.0 mm 0.00 in0.0 mm 0.00 in0.0 mm
05:07 PM 43.3°F6.3°C 40.8°F4.9°C 91% 4.0 mph S6.4 kmh S 6.3 mph10.1 kmh 24.86 in841.9 mb 0.00 in0.0 mm 0.00 in0.0 mm 0.00 in0.0 mm
05:02 PM 43.3°F6.3°C 40.6°F4.8°C 90% 4.0 mph S6.4 kmh S 6.3 mph10.1 kmh 24.86 in841.9 mb 0.00 in0.0 mm 0.00 in0.0 mm 0.00 in0.0 mm
04:57 PM 43.0°F6.1°C 39.7°F4.3°C 88% 4.0 mph S6.4 kmh S 6.7 mph10.8 kmh 24.83 in840.8 mb 0.00 in0.0 mm 0.00 in0.0 mm 0.00 in0.0 mm
04:52 PM 43.2°F6.2°C 40.1°F4.5°C 89% 4.0 mph SSW6.4 kmh SSW 5.4 mph8.7 kmh 24.83 in840.8 mb 0.00 in0.0 mm 0.00 in0.0 mm 0.00 in0.0 mm
04:47 PM 43.2°F6.2°C 39.9°F4.4°C 88% 4.0 mph SSW6.4 kmh SSW 6.7 mph10.8 kmh 24.83 in840.8 mb 0.00 in0.0 mm 0.00 in0.0 mm 0.00 in0.0 mm
04:42 PM 43.2°F6.2°C 40.1°F4.5°C 89% 4.0 mph SSW6.4 kmh SSW 6.7 mph10.8 kmh 24.83 in840.8 mb 0.00 in0.0 mm 0.00 in0.0 mm 0.00 in0.0 mm
04:37 PM 43.3°F6.3°C 40.8°F4.9°C 91% 3.0 mph S4.8 kmh S 5.4 mph8.7 kmh 24.83 in840.8 mb 0.00 in0.0 mm 0.00 in0.0 mm 0.00 in0.0 mm
04:32 PM 43.9°F6.6°C 41.7°F5.4°C 92% 2.0 mph SW3.2 kmh SW 5.4 mph8.7 kmh 24.83 in840.8 mb 0.00 in0.0 mm 0.00 in0.0 mm 0.00 in0.0 mm
04:27 PM 43.7°F6.5°C 41.5°F5.3°C 92% Calm Calm 3.1 mph5.0 kmh 24.83 in840.8 mb 0.00 in0.0 mm 0.00 in0.0 mm 0.00 in0.0 mm
04:22 PM 43.5°F6.4°C 41.7°F5.4°C 93% Calm Calm -- 24.83 in840.8 mb 0.00 in0.0 mm 0.00 in0.0 mm 0.00 in0.0 mm
04:17 PM 43.7°F6.5°C 41.9°F5.5°C 93% 1.0 mph SW1.6 kmh SW 3.6 mph5.8 kmh 24.83 in840.8 mb 0.00 in0.0 mm 0.00 in0.0 mm 0.00 in0.0 mm
04:12 PM 43.9°F6.6°C 41.9°F5.5°C 93% Calm Calm 3.6 mph5.8 kmh 24.83 in840.8 mb 0.00 in0.0 mm 0.00 in0.0 mm 0.00 in0.0 mm
04:07 PM 43.7°F6.5°C 41.9°F5.5°C 93% Calm Calm -- 24.83 in840.8 mb 0.00 in0.0 mm 0.00 in0.0 mm 0.00 in0.0 mm
04:02 PM 43.5°F6.4°C 41.9°F5.5°C 94% Calm Calm -- 24.83 in840.8 mb 0.00 in0.0 mm 0.00 in0.0 mm 0.00 in0.0 mm
03:57 PM 43.7°F6.5°C 42.1°F5.6°C 94% Calm Calm 3.1 mph5.0 kmh 24.83 in840.8 mb 0.00 in0.0 mm 0.00 in0.0 mm 0.00 in0.0 mm
03:52 PM 43.3°F6.3°C 41.7°F5.4°C 94% Calm Calm 3.1 mph5.0 kmh 24.83 in840.8 mb 0.00 in0.0 mm 0.00 in0.0 mm 0.00 in0.0 mm
03:47 PM 43.0°F6.1°C 41.4°F5.2°C 94% Calm Calm 3.6 mph5.8 kmh 24.83 in840.8 mb 0.00 in0.0 mm 0.00 in0.0 mm 0.00 in0.0 mm
03:42 PM 43.2°F6.2°C 41.5°F5.3°C 94% Calm Calm -- 24.83 in840.8 mb 0.00 in0.0 mm 0.00 in0.0 mm 0.00 in0.0 mm
03:37 PM 43.2°F6.2°C 41.5°F5.3°C 94% Calm Calm -- 24.83 in840.8 mb 0.00 in0.0 mm 0.00 in0.0 mm 0.00 in0.0 mm
03:32 PM 42.8°F6.0°C 41.5°F5.3°C 95% Calm Calm 3.1 mph5.0 kmh 24.83 in840.8 mb 0.00 in0.0 mm 0.00 in0.0 mm 0.00 in0.0 mm
03:27 PM 43.0°F6.1°C 41.7°F5.4°C 95% 1.0 mph SW1.6 kmh SW 3.1 mph5.0 kmh 24.83 in840.8 mb 0.00 in0.0 mm 0.00 in0.0 mm 0.00 in0.0 mm
03:22 PM 43.2°F6.2°C 41.9°F5.5°C 95% 2.0 mph SW3.2 kmh SW 4.5 mph7.2 kmh 24.83 in840.8 mb 0.00 in0.0 mm 0.00 in0.0 mm 0.00 in0.0 mm
03:17 PM 42.6°F5.9°C 41.4°F5.2°C 95% 3.0 mph SW4.8 kmh SW 4.9 mph7.9 kmh 24.83 in840.8 mb 0.00 in0.0 mm 0.00 in0.0 mm 0.00 in0.0 mm
03:12 PM 42.6°F5.9°C 41.4°F5.2°C 95% 4.0 mph WSW6.4 kmh WSW 5.4 mph8.7 kmh 24.83 in840.8 mb 0.00 in0.0 mm 0.00 in0.0 mm 0.00 in0.0 mm
03:07 PM 42.4°F5.8°C 41.2°F5.1°C 95% 5.0 mph SW8.0 kmh SW 6.7 mph10.8 kmh 24.83 in840.8 mb 0.00 in0.0 mm 0.00 in0.0 mm 0.00 in0.0 mm
03:02 PM 42.6°F5.9°C 41.4°F5.2°C 95% 5.0 mph SW8.0 kmh SW 6.9 mph11.1 kmh 24.83 in840.8 mb 0.00 in0.0 mm 0.00 in0.0 mm 0.00 in0.0 mm
02:57 PM 42.6°F5.9°C 41.5°F5.3°C 96% 6.0 mph SW9.7 kmh SW 9.2 mph14.8 kmh 24.83 in840.8 mb 0.00 in0.0 mm 0.00 in0.0 mm 0.00 in0.0 mm
02:52 PM 42.8°F6.0°C 41.7°F5.4°C 96% 6.0 mph SW9.7 kmh SW 8.7 mph14.0 kmh 24.83 in840.8 mb 0.00 in0.0 mm 0.00 in0.0 mm 0.00 in0.0 mm
02:47 PM 42.8°F6.0°C 41.5°F5.3°C 95% 8.0 mph SW12.9 kmh SW 11.0 mph17.7 kmh 24.83 in840.8 mb 0.00 in0.0 mm 0.00 in0.0 mm 0.00 in0.0 mm
02:42 PM 43.0°F6.1°C 41.7°F5.4°C 95% 8.0 mph SW12.9 kmh SW 12.1 mph19.5 kmh 24.80 in839.8 mb 0.00 in0.0 mm 0.00 in0.0 mm 0.00 in0.0 mm
02:36 PM 42.8°F6.0°C 41.5°F5.3°C 95% 8.0 mph SW12.9 kmh SW 12.1 mph19.5 kmh 24.80 in839.8 mb 0.00 in0.0 mm 0.00 in0.0 mm 0.00 in0.0 mm
02:31 PM 43.0°F6.1°C 41.7°F5.4°C 95% 7.0 mph S11.3 kmh S 10.5 mph16.9 kmh 24.80 in839.8 mb 0.00 in0.0 mm 0.00 in0.0 mm 0.00 in0.0 mm
02:26 PM 43.2°F6.2°C 41.9°F5.5°C 95% 6.0 mph S9.7 kmh S 9.2 mph14.8 kmh 24.80 in839.8 mb 0.00 in0.0 mm 0.00 in0.0 mm 0.00 in0.0 mm
02:21 PM 43.5°F6.4°C 41.9°F5.5°C 94% 6.0 mph S9.7 kmh S 8.3 mph13.4 kmh 24.80 in839.8 mb 0.00 in0.0 mm 0.00 in0.0 mm 0.00 in0.0 mm
02:16 PM 43.7°F6.5°C 42.1°F5.6°C 94% 5.0 mph S8.0 kmh S 6.7 mph10.8 kmh 24.80 in839.8 mb 0.00 in0.0 mm 0.00 in0.0 mm 0.00 in0.0 mm
02:11 PM 43.7°F6.5°C 42.1°F5.6°C 94% 4.0 mph S6.4 kmh S 6.7 mph10.8 kmh 24.80 in839.8 mb 0.00 in0.0 mm 0.00 in0.0 mm 0.00 in0.0 mm
02:06 PM 43.9°F6.6°C 42.3°F5.7°C 94% 4.0 mph SSW6.4 kmh SSW 5.8 mph9.3 kmh 24.80 in839.8 mb 0.00 in0.0 mm 0.00 in0.0 mm 0.00 in0.0 mm
02:01 PM 43.7°F6.5°C 42.1°F5.6°C 94% 5.0 mph SW8.0 kmh SW 6.3 mph10.1 kmh 24.80 in839.8 mb 0.00 in0.0 mm 0.00 in0.0 mm 0.00 in0.0 mm
01:56 PM 43.7°F6.5°C 41.9°F5.5°C 93% 5.0 mph SW8.0 kmh SW 6.9 mph11.1 kmh 24.80 in839.8 mb 0.00 in0.0 mm 0.00 in0.0 mm 0.00 in0.0 mm
01:51 PM 43.7°F6.5°C 41.9°F5.5°C 93% 6.0 mph SSW9.7 kmh SSW 7.4 mph11.9 kmh 24.80 in839.8 mb 0.00 in0.0 mm 0.00 in0.0 mm 0.00 in0.0 mm
01:46 PM 43.9°F6.6°C 42.3°F5.7°C 94% 6.0 mph S9.7 kmh S 7.8 mph12.6 kmh 24.80 in839.8 mb 0.00 in0.0 mm 0.00 in0.0 mm 0.00 in0.0 mm
01:41 PM 43.7°F6.5°C 42.1°F5.6°C 94% 6.0 mph S9.7 kmh S 9.2 mph14.8 kmh 24.80 in839.8 mb 0.00 in0.0 mm 0.00 in0.0 mm 0.00 in0.0 mm
01:36 PM 44.4°F6.9°C 42.8°F6.0°C 94% 6.0 mph S9.7 kmh S 7.4 mph11.9 kmh 24.80 in839.8 mb 0.00 in0.0 mm 0.00 in0.0 mm 0.00 in0.0 mm
01:31 PM 44.2°F6.8°C 42.6°F5.9°C 94% 6.0 mph S9.7 kmh S 6.9 mph11.1 kmh 24.80 in839.8 mb 0.00 in0.0 mm 0.00 in0.0 mm 0.00 in0.0 mm
01:26 PM 44.2°F6.8°C 43.0°F6.1°C 95% 5.0 mph S8.0 kmh S 7.4 mph11.9 kmh 24.80 in839.8 mb 0.00 in0.0 mm 0.00 in0.0 mm 0.00 in0.0 mm
01:21 PM 44.2°F6.8°C 43.0°F6.1°C 95% 6.0 mph S9.7 kmh S 7.8 mph12.6 kmh 24.80 in839.8 mb 0.00 in0.0 mm 0.00 in0.0 mm 0.00 in0.0 mm
01:16 PM 44.1°F6.7°C 42.8°F6.0°C 95% 6.0 mph S9.7 kmh S 8.3 mph13.4 kmh 24.80 in839.8 mb 0.00 in0.0 mm 0.00 in0.0 mm 0.00 in0.0 mm
01:11 PM 43.7°F6.5°C 42.1°F5.6°C 94% 6.0 mph SE9.7 kmh SE 7.8 mph12.6 kmh 24.80 in839.8 mb 0.00 in0.0 mm 0.00 in0.0 mm 0.00 in0.0 mm
01:06 PM 43.7°F6.5°C 42.1°F5.6°C 94% 6.0 mph SE9.7 kmh SE 9.2 mph14.8 kmh 24.80 in839.8 mb 0.00 in0.0 mm 0.00 in0.0 mm 0.00 in0.0 mm
01:01 PM 43.9°F6.6°C 42.3°F5.7°C 94% 6.0 mph SE9.7 kmh SE 9.2 mph14.8 kmh 24.80 in839.8 mb 0.00 in0.0 mm 0.00 in0.0 mm 0.00 in0.0 mm
12:56 PM 43.7°F6.5°C 42.1°F5.6°C 94% 6.0 mph SSE9.7 kmh SSE 9.6 mph15.4 kmh 24.80 in839.8 mb 0.00 in0.0 mm 0.00 in0.0 mm 0.00 in0.0 mm
12:51 PM 43.5°F6.4°C 41.7°F5.4°C 93% 6.0 mph SSE9.7 kmh SSE 10.1 mph16.3 kmh 24.80 in839.8 mb 0.00 in0.0 mm 0.00 in0.0 mm 0.00 in0.0 mm
12:46 PM 43.9°F6.6°C 41.4°F5.2°C 91% 5.0 mph SSE8.0 kmh SSE 7.8 mph12.6 kmh 24.80 in839.8 mb 0.00 in0.0 mm 0.00 in0.0 mm 0.00 in0.0 mm
12:41 PM 43.7°F6.5°C 40.5°F4.7°C 88% 3.0 mph SE4.8 kmh SE 8.3 mph13.4 kmh 24.80 in839.8 mb 0.00 in0.0 mm 0.00 in0.0 mm 0.00 in0.0 mm
12:36 PM 43.7°F6.5°C 39.6°F4.2°C 85% 1.0 mph SE1.6 kmh SE 5.4 mph8.7 kmh 24.80 in839.8 mb 0.00 in0.0 mm 0.00 in0.0 mm 0.00 in0.0 mm
12:31 PM 43.5°F6.4°C 38.1°F3.4°C 81% 1.0 mph SE1.6 kmh SE 4.5 mph7.2 kmh 24.80 in839.8 mb 0.00 in0.0 mm 0.00 in0.0 mm 0.00 in0.0 mm
12:26 PM 43.3°F6.3°C 37.2°F2.9°C 79% 1.0 mph S1.6 kmh S 6.3 mph10.1 kmh 24.80 in839.8 mb 0.00 in0.0 mm 0.00 in0.0 mm 0.00 in0.0 mm
12:21 PM 43.5°F6.4°C 36.9°F2.7°C 77% 1.0 mph S1.6 kmh S 4.9 mph7.9 kmh 24.80 in839.8 mb 0.00 in0.0 mm 0.00 in0.0 mm 0.00 in0.0 mm
12:16 PM 43.5°F6.4°C 36.9°F2.7°C 77% 3.0 mph SSW4.8 kmh SSW 8.3 mph13.4 kmh 24.80 in839.8 mb 0.00 in0.0 mm 0.00 in0.0 mm 0.00 in0.0 mm
12:11 PM 43.5°F6.4°C 36.1°F2.3°C 75% 7.0 mph SSW11.3 kmh SSW 10.1 mph16.3 kmh 24.77 in838.8 mb 0.00 in0.0 mm 0.00 in0.0 mm 0.00 in0.0 mm
12:06 PM 43.7°F6.5°C 36.0°F2.2°C 74% 9.0 mph SSW14.5 kmh SSW 11.2 mph18.0 kmh 24.77 in838.8 mb 0.00 in0.0 mm 0.00 in0.0 mm 0.00 in0.0 mm
12:01 PM 43.9°F6.6°C 35.1°F1.7°C 71% 8.0 mph SSW12.9 kmh SSW 11.0 mph17.7 kmh 24.77 in838.8 mb 0.00 in0.0 mm 0.00 in0.0 mm 0.00 in0.0 mm
11:56 AM 44.1°F6.7°C 34.5°F1.4°C 69% 8.0 mph S12.9 kmh S 10.5 mph16.9 kmh 24.77 in838.8 mb 0.00 in0.0 mm 0.00 in0.0 mm 0.00 in0.0 mm
11:51 AM 44.2°F6.8°C 33.6°F0.9°C 66% 9.0 mph S14.5 kmh S 11.0 mph17.7 kmh 24.77 in838.8 mb 0.00 in0.0 mm 0.00 in0.0 mm 0.00 in0.0 mm
11:46 AM 45.3°F7.4°C 32.2°F0.1°C 60% 8.0 mph S12.9 kmh S 12.1 mph19.5 kmh 24.77 in838.8 mb 0.00 in0.0 mm 0.00 in0.0 mm 0.00 in0.0 mm
11:41 AM 47.1°F8.4°C 30.9°F-0.6°C 53% 5.0 mph SSW8.0 kmh SSW 11.6 mph18.7 kmh 24.77 in838.8 mb 0.00 in0.0 mm 0.00 in0.0 mm 0.00 in0.0 mm
11:36 AM 48.4°F9.1°C 27.5°F-2.5°C 44% 2.0 mph WNW3.2 kmh WNW 6.7 mph10.8 kmh 24.77 in838.8 mb 0.00 in0.0 mm 0.00 in0.0 mm 0.00 in0.0 mm
11:31 AM 48.4°F9.1°C 26.4°F-3.1°C 42% 1.0 mph NW1.6 kmh NW 4.0 mph6.4 kmh 24.77 in838.8 mb 0.00 in0.0 mm 0.00 in0.0 mm 0.00 in0.0 mm
11:26 AM 48.4°F9.1°C 26.4°F-3.1°C 42% 1.0 mph NW1.6 kmh NW 3.6 mph5.8 kmh 24.77 in838.8 mb 0.00 in0.0 mm 0.00 in0.0 mm 0.00 in0.0 mm
11:21 AM 48.7°F9.3°C 26.6°F-3.0°C 42% Calm Calm 4.0 mph6.4 kmh 24.77 in838.8 mb 0.00 in0.0 mm 0.00 in0.0 mm 0.00 in0.0 mm
11:16 AM 48.7°F9.3°C 26.6°F-3.0°C 42% 1.0 mph NW1.6 kmh NW 3.1 mph5.0 kmh 24.77 in838.8 mb 0.00 in0.0 mm 0.00 in0.0 mm 0.00 in0.0 mm
11:11 AM 48.6°F9.2°C 27.1°F-2.7°C 43% 2.0 mph WNW3.2 kmh WNW 4.5 mph7.2 kmh 24.77 in838.8 mb 0.00 in0.0 mm 0.00 in0.0 mm 0.00 in0.0 mm
11:06 AM 48.7°F9.3°C 28.9°F-1.7°C 46% Calm Calm 4.0 mph6.4 kmh 24.77 in838.8 mb 0.00 in0.0 mm 0.00 in0.0 mm 0.00 in0.0 mm
11:01 AM 48.7°F9.3°C 27.9°F-2.3°C 44% Calm Calm -- 24.77 in838.8 mb 0.00 in0.0 mm 0.00 in0.0 mm 0.00 in0.0 mm
10:56 AM 48.7°F9.3°C 28.4°F-2.0°C 45% Calm Calm 4.0 mph6.4 kmh 24.77 in838.8 mb 0.00 in0.0 mm 0.00 in0.0 mm 0.00 in0.0 mm
10:51 AM 48.4°F9.1°C 28.0°F-2.2°C 45% Calm Calm 4.0 mph6.4 kmh 24.77 in838.8 mb 0.00 in0.0 mm 0.00 in0.0 mm 0.00 in0.0 mm
10:46 AM 48.4°F9.1°C 29.1°F-1.6°C 47% Calm Calm -- 24.77 in838.8 mb 0.00 in0.0 mm 0.00 in0.0 mm 0.00 in0.0 mm
10:41 AM 48.0°F8.9°C 28.8°F-1.8°C 47% Calm Calm 4.0 mph6.4 kmh 24.77 in838.8 mb 0.00 in0.0 mm 0.00 in0.0 mm 0.00 in0.0 mm
10:36 AM 47.7°F8.7°C 28.9°F-1.7°C 48% Calm Calm 3.1 mph5.0 kmh 24.77 in838.8 mb 0.00 in0.0 mm 0.00 in0.0 mm 0.00 in0.0 mm
10:31 AM 47.3°F8.5°C 29.7°F-1.3°C 50% Calm Calm 2.7 mph4.3 kmh 24.77 in838.8 mb 0.00 in0.0 mm 0.00 in0.0 mm 0.00 in0.0 mm
10:26 AM 46.8°F8.2°C 30.0°F-1.1°C 52% Calm Calm 3.1 mph5.0 kmh 24.77 in838.8 mb 0.00 in0.0 mm 0.00 in0.0 mm 0.00 in0.0 mm
10:21 AM 46.0°F7.8°C 30.4°F-0.9°C 54% 1.0 mph NNW1.6 kmh NNW 3.6 mph5.8 kmh 24.77 in838.8 mb 0.00 in0.0 mm 0.00 in0.0 mm 0.00 in0.0 mm
10:16 AM 45.5°F7.5°C 31.1°F-0.5°C 57% 1.0 mph NNW1.6 kmh NNW 3.6 mph5.8 kmh 24.77 in838.8 mb 0.00 in0.0 mm 0.00 in0.0 mm 0.00 in0.0 mm
10:11 AM 45.5°F7.5°C 32.0°F0.0°C 59% 2.0 mph NNW3.2 kmh NNW 4.9 mph7.9 kmh 24.77 in838.8 mb 0.00 in0.0 mm 0.00 in0.0 mm 0.00 in0.0 mm
10:06 AM 45.1°F7.3°C 33.6°F0.9°C 64% 3.0 mph NW4.8 kmh NW 4.5 mph7.2 kmh 24.77 in838.8 mb 0.00 in0.0 mm 0.00 in0.0 mm 0.00 in0.0 mm
10:01 AM 45.0°F7.2°C 34.7°F1.5°C 67% 3.0 mph NW4.8 kmh NW 4.0 mph6.4 kmh 24.77 in838.8 mb 0.00 in0.0 mm 0.00 in0.0 mm 0.00 in0.0 mm
09:56 AM 44.6°F7.0°C 32.7°F0.4°C 63% 2.0 mph NNW3.2 kmh NNW 4.0 mph6.4 kmh 24.77 in838.8 mb 0.00 in0.0 mm 0.00 in0.0 mm 0.00 in0.0 mm
09:51 AM 44.4°F6.9°C 34.5°F1.4°C 68% 2.0 mph NNW3.2 kmh NNW 3.1 mph5.0 kmh 24.77 in838.8 mb 0.00 in0.0 mm 0.00 in0.0 mm 0.00 in0.0 mm
09:46 AM 44.2°F6.8°C 32.0°F0.0°C 62% 2.0 mph 3.2 kmh 4.0 mph6.4 kmh 24.77 in838.8 mb 0.00 in0.0 mm 0.00 in0.0 mm 0.00 in0.0 mm
09:41 AM 44.2°F6.8°C 35.4°F1.9°C 71% 1.0 mph NNE1.6 kmh NNE 4.5 mph7.2 kmh 24.77 in838.8 mb 0.00 in0.0 mm 0.00 in0.0 mm 0.00 in0.0 mm
09:36 AM 44.1°F6.7°C 36.0°F2.2°C 73% 2.0 mph NNE3.2 kmh NNE 3.6 mph5.8 kmh 24.77 in838.8 mb 0.00 in0.0 mm 0.00 in0.0 mm 0.00 in0.0 mm
09:31 AM 44.2°F6.8°C 37.2°F2.9°C 76% 2.0 mph E3.2 kmh E 4.9 mph7.9 kmh 24.77 in838.8 mb 0.00 in0.0 mm 0.00 in0.0 mm 0.00 in0.0 mm
09:26 AM 43.7°F6.5°C 37.0°F2.8°C 77% 1.0 mph ESE1.6 kmh ESE 3.1 mph5.0 kmh 24.77 in838.8 mb 0.00 in0.0 mm 0.00 in0.0 mm 0.00 in0.0 mm
09:21 AM 43.0°F6.1°C 37.2°F2.9°C 80% 1.0 mph ESE1.6 kmh ESE 4.0 mph6.4 kmh 24.77 in838.8 mb 0.00 in0.0 mm 0.00 in0.0 mm 0.00 in0.0 mm
09:16 AM 42.8°F6.0°C 39.2°F4.0°C 87% 1.0 mph ESE1.6 kmh ESE 3.6 mph5.8 kmh 24.77 in838.8 mb 0.00 in0.0 mm 0.00 in0.0 mm 0.00 in0.0 mm
09:11 AM 41.7°F5.4°C 38.7°F3.7°C 89% 1.0 mph ESE1.6 kmh ESE 3.6 mph5.8 kmh 24.77 in838.8 mb 0.00 in0.0 mm 0.00 in0.0 mm 0.00 in0.0 mm
09:06 AM 41.0°F5.0°C 37.9°F3.3°C 89% 2.0 mph ESE3.2 kmh ESE 3.6 mph5.8 kmh 24.77 in838.8 mb 0.00 in0.0 mm 0.00 in0.0 mm 0.00 in0.0 mm
09:01 AM 40.5°F4.7°C 37.4°F3.0°C 89% 1.0 mph ESE1.6 kmh ESE 3.6 mph5.8 kmh 24.77 in838.8 mb 0.00 in0.0 mm 0.00 in0.0 mm 0.00 in0.0 mm
08:56 AM 39.7°F4.3°C 37.0°F2.8°C 90% Calm Calm 2.7 mph4.3 kmh 24.77 in838.8 mb 0.00 in0.0 mm 0.00 in0.0 mm 0.00 in0.0 mm
08:51 AM 39.0°F3.9°C 36.3°F2.4°C 90% Calm Calm 2.7 mph4.3 kmh 24.77 in838.8 mb 0.00 in0.0 mm 0.00 in0.0 mm 0.00 in0.0 mm
08:46 AM 38.7°F3.7°C 36.0°F2.2°C 90% Calm Calm 3.1 mph5.0 kmh 24.77 in838.8 mb 0.00 in0.0 mm 0.00 in0.0 mm 0.00 in0.0 mm
08:41 AM 38.7°F3.7°C 36.0°F2.2°C 90% Calm Calm 3.1 mph5.0 kmh 24.80 in839.8 mb 0.00 in0.0 mm 0.00 in0.0 mm 0.00 in0.0 mm
08:36 AM 38.5°F3.6°C 35.8°F2.1°C 90% 1.0 mph ESE1.6 kmh ESE -- 24.80 in839.8 mb 0.00 in0.0 mm 0.00 in0.0 mm 0.00 in0.0 mm
08:31 AM 38.5°F3.6°C 35.8°F2.1°C 90% 1.0 mph ESE1.6 kmh ESE 3.6 mph5.8 kmh 24.80 in839.8 mb 0.00 in0.0 mm 0.00 in0.0 mm 0.00 in0.0 mm
08:26 AM 38.3°F3.5°C 35.6°F2.0°C 90% Calm Calm -- 24.80 in839.8 mb 0.00 in0.0 mm 0.00 in0.0 mm 0.00 in0.0 mm
08:21 AM 38.3°F3.5°C 35.6°F2.0°C 90% Calm Calm -- 24.80 in839.8 mb 0.00 in0.0 mm 0.00 in0.0 mm 0.00 in0.0 mm
08:16 AM 38.3°F3.5°C 35.6°F2.0°C 90% 1.0 mph ESE1.6 kmh ESE 4.0 mph6.4 kmh 24.80 in839.8 mb 0.00 in0.0 mm 0.00 in0.0 mm 0.00 in0.0 mm
08:11 AM 38.5°F3.6°C 36.1°F2.3°C 91% 1.0 mph E1.6 kmh E 2.7 mph4.3 kmh 24.80 in839.8 mb 0.00 in0.0 mm 0.00 in0.0 mm 0.00 in0.0 mm
08:06 AM 38.5°F3.6°C 36.3°F2.4°C 92% 2.0 mph N3.2 kmh N 6.7 mph10.8 kmh 24.80 in839.8 mb 0.00 in0.0 mm 0.00 in0.0 mm 0.00 in0.0 mm
08:01 AM 38.3°F3.5°C 36.1°F2.3°C 92% 3.0 mph NNW4.8 kmh NNW 5.8 mph9.3 kmh 24.80 in839.8 mb 0.00 in0.0 mm 0.00 in0.0 mm 0.00 in0.0 mm
07:56 AM 37.9°F3.3°C 35.8°F2.1°C 92% 4.0 mph N6.4 kmh N 5.8 mph9.3 kmh 24.77 in838.8 mb 0.00 in0.0 mm 0.00 in0.0 mm 0.00 in0.0 mm
07:51 AM 37.0°F2.8°C 34.9°F1.6°C 92% 3.0 mph NNE4.8 kmh NNE 5.8 mph9.3 kmh 24.77 in838.8 mb 0.00 in0.0 mm 0.00 in0.0 mm 0.00 in0.0 mm
07:46 AM 36.9°F2.7°C 34.7°F1.5°C 92% 3.0 mph NNE4.8 kmh NNE 4.5 mph7.2 kmh 24.77 in838.8 mb 0.00 in0.0 mm 0.00 in0.0 mm 0.00 in0.0 mm
07:41 AM 36.7°F2.6°C 34.5°F1.4°C 92% 3.0 mph NNE4.8 kmh NNE 5.8 mph9.3 kmh 24.77 in838.8 mb 0.00 in0.0 mm 0.00 in0.0 mm 0.00 in0.0 mm
07:36 AM 36.7°F2.6°C 34.5°F1.4°C 92% 2.0 mph NE3.2 kmh NE 4.5 mph7.2 kmh 24.77 in838.8 mb 0.00 in0.0 mm 0.00 in0.0 mm 0.00 in0.0 mm
07:31 AM 36.5°F2.5°C 34.3°F1.3°C 92% 3.0 mph ENE4.8 kmh ENE 4.5 mph7.2 kmh 24.77 in838.8 mb 0.00 in0.0 mm 0.00 in0.0 mm 0.00 in0.0 mm
07:26 AM 36.5°F2.5°C 34.7°F1.5°C 93% 3.0 mph E4.8 kmh E 5.8 mph9.3 kmh 24.77 in838.8 mb 0.00 in0.0 mm 0.00 in0.0 mm 0.00 in0.0 mm
07:21 AM 37.0°F2.8°C 35.2°F1.8°C 93% 1.0 mph SSE1.6 kmh SSE 5.4 mph8.7 kmh 24.77 in838.8 mb 0.00 in0.0 mm 0.00 in0.0 mm 0.00 in0.0 mm
07:16 AM 35.6°F2.0°C 33.8°F1.0°C 93% 1.0 mph SSE1.6 kmh SSE 2.7 mph4.3 kmh 24.77 in838.8 mb 0.00 in0.0 mm 0.00 in0.0 mm 0.00 in0.0 mm
07:11 AM 35.2°F1.8°C 33.4°F0.8°C 93% 2.0 mph SSE3.2 kmh SSE 4.5 mph7.2 kmh 24.77 in838.8 mb 0.00 in0.0 mm 0.00 in0.0 mm 0.00 in0.0 mm
07:06 AM 34.9°F1.6°C 32.7°F0.4°C 92% 3.0 mph SSE4.8 kmh SSE 5.4 mph8.7 kmh 24.77 in838.8 mb 0.00 in0.0 mm 0.00 in0.0 mm 0.00 in0.0 mm
07:01 AM 34.5°F1.4°C 32.2°F0.1°C 91% 3.0 mph SSE4.8 kmh SSE 4.5 mph7.2 kmh 24.77 in838.8 mb 0.00 in0.0 mm 0.00 in0.0 mm 0.00 in0.0 mm
06:56 AM 34.9°F1.6°C 32.5°F0.3°C 91% 2.0 mph SSE3.2 kmh SSE 4.5 mph7.2 kmh 24.77 in838.8 mb 0.00 in0.0 mm 0.00 in0.0 mm 0.00 in0.0 mm
06:51 AM 34.9°F1.6°C 32.5°F0.3°C 91% 2.0 mph SSE3.2 kmh SSE 4.0 mph6.4 kmh 24.77 in838.8 mb 0.00 in0.0 mm 0.00 in0.0 mm 0.00 in0.0 mm
06:46 AM 35.2°F1.8°C 32.9°F0.5°C 91% 4.0 mph SSE6.4 kmh SSE 5.8 mph9.3 kmh 24.77 in838.8 mb 0.00 in0.0 mm 0.00 in0.0 mm 0.00 in0.0 mm
06:41 AM 35.1°F1.7°C 32.2°F0.1°C 89% 3.0 mph SE4.8 kmh SE 5.8 mph9.3 kmh 24.75 in838.1 mb 0.00 in0.0 mm 0.00 in0.0 mm 0.00 in0.0 mm
06:36 AM 35.6°F2.0°C 32.7°F0.4°C 89% 1.0 mph NE1.6 kmh NE 5.8 mph9.3 kmh 24.75 in838.1 mb 0.00 in0.0 mm 0.00 in0.0 mm 0.00 in0.0 mm
06:31 AM 35.6°F2.0°C 32.7°F0.4°C 89% 2.0 mph NE3.2 kmh NE 3.6 mph5.8 kmh 24.75 in838.1 mb 0.00 in0.0 mm 0.00 in0.0 mm 0.00 in0.0 mm
06:26 AM 35.6°F2.0°C 32.4°F0.2°C 88% 2.0 mph NE3.2 kmh NE 4.0 mph6.4 kmh 24.75 in838.1 mb 0.00 in0.0 mm 0.00 in0.0 mm 0.00 in0.0 mm
06:21 AM 35.4°F1.9°C 32.2°F0.1°C 88% 1.0 mph NE1.6 kmh NE 3.1 mph5.0 kmh 24.75 in838.1 mb 0.00 in0.0 mm 0.00 in0.0 mm 0.00 in0.0 mm
06:16 AM 35.6°F2.0°C 32.4°F0.2°C 88% 1.0 mph NE1.6 kmh NE 3.1 mph5.0 kmh 24.75 in838.1 mb 0.00 in0.0 mm 0.00 in0.0 mm 0.00 in0.0 mm
06:11 AM 35.6°F2.0°C 32.4°F0.2°C 88% 2.0 mph NE3.2 kmh NE 4.5 mph7.2 kmh 24.75 in838.1 mb 0.00 in0.0 mm 0.00 in0.0 mm 0.00 in0.0 mm
06:06 AM 36.1°F2.3°C 32.9°F0.5°C 88% 3.0 mph NNE4.8 kmh NNE 4.9 mph7.9 kmh 24.75 in838.1 mb 0.00 in0.0 mm 0.00 in0.0 mm 0.00 in0.0 mm
06:01 AM 36.5°F2.5°C 33.1°F0.6°C 87% 3.0 mph N4.8 kmh N 4.9 mph7.9 kmh 24.75 in838.1 mb 0.00 in0.0 mm 0.00 in0.0 mm 0.00 in0.0 mm
05:56 AM 36.9°F2.7°C 33.4°F0.8°C 87% 4.0 mph NNW6.4 kmh NNW 5.8 mph9.3 kmh 24.75 in838.1 mb 0.00 in0.0 mm 0.00 in0.0 mm 0.00 in0.0 mm
05:51 AM 36.9°F2.7°C 33.1°F0.6°C 86% 4.0 mph NNW6.4 kmh NNW 5.4 mph8.7 kmh 24.75 in838.1 mb 0.00 in0.0 mm 0.00 in0.0 mm 0.00 in0.0 mm
05:46 AM 36.9°F2.7°C 33.1°F0.6°C 86% 4.0 mph N6.4 kmh N 6.3 mph10.1 kmh 24.75 in838.1 mb 0.00 in0.0 mm 0.00 in0.0 mm 0.00 in0.0 mm
05:41 AM 36.9°F2.7°C 32.7°F0.4°C 85% 4.0 mph N6.4 kmh N 6.3 mph10.1 kmh 24.77 in838.8 mb 0.00 in0.0 mm 0.00 in0.0 mm 0.00 in0.0 mm
05:36 AM 36.7°F2.6°C 32.5°F0.3°C 85% 3.0 mph N4.8 kmh N 4.9 mph7.9 kmh 24.77 in838.8 mb 0.00 in0.0 mm 0.00 in0.0 mm 0.00 in0.0 mm
05:31 AM 37.0°F2.8°C 32.9°F0.5°C 85% 3.0 mph N4.8 kmh N 4.5 mph7.2 kmh 24.77 in838.8 mb 0.00 in0.0 mm 0.00 in0.0 mm 0.00 in0.0 mm
05:26 AM 37.2°F2.9°C 33.1°F0.6°C 85% 3.0 mph N4.8 kmh N 6.3 mph10.1 kmh 24.77 in838.8 mb 0.00 in0.0 mm 0.00 in0.0 mm 0.00 in0.0 mm
05:21 AM 37.6°F3.1°C 33.4°F0.8°C 85% 2.0 mph N3.2 kmh N 5.8 mph9.3 kmh 24.77 in838.8 mb 0.00 in0.0 mm 0.00 in0.0 mm 0.00 in0.0 mm
05:16 AM 37.4°F3.0°C 33.1°F0.6°C 84% Calm Calm 3.6 mph5.8 kmh 24.77 in838.8 mb 0.00 in0.0 mm 0.00 in0.0 mm 0.00 in0.0 mm
05:11 AM 37.9°F3.3°C 33.6°F0.9°C 84% 1.0 mph NE1.6 kmh NE -- 24.77 in838.8 mb 0.00 in0.0 mm 0.00 in0.0 mm 0.00 in0.0 mm
05:06 AM 38.3°F3.5°C 34.2°F1.2°C 85% 3.0 mph N4.8 kmh N 4.9 mph7.9 kmh 24.77 in838.8 mb 0.00 in0.0 mm 0.00 in0.0 mm 0.00 in0.0 mm
05:01 AM 38.5°F3.6°C 34.2°F1.2°C 84% 5.0 mph N8.0 kmh N 6.9 mph11.1 kmh 24.77 in838.8 mb 0.00 in0.0 mm 0.00 in0.0 mm 0.00 in0.0 mm
04:56 AM 38.7°F3.7°C 34.5°F1.4°C 85% 5.0 mph NNW8.0 kmh NNW 9.2 mph14.8 kmh 24.77 in838.8 mb 0.00 in0.0 mm 0.00 in0.0 mm 0.00 in0.0 mm
04:51 AM 38.8°F3.8°C 35.1°F1.7°C 86% 6.0 mph NNW9.7 kmh NNW 9.2 mph14.8 kmh 24.77 in838.8 mb 0.00 in0.0 mm 0.00 in0.0 mm 0.00 in0.0 mm
04:46 AM 39.0°F3.9°C 35.4°F1.9°C 87% 6.0 mph NW9.7 kmh NW 8.7 mph14.0 kmh 24.77 in838.8 mb 0.00 in0.0 mm 0.00 in0.0 mm 0.00 in0.0 mm
04:41 AM 39.2°F4.0°C 36.0°F2.2°C 88% 6.0 mph NW9.7 kmh NW 9.2 mph14.8 kmh 24.77 in838.8 mb 0.00 in0.0 mm 0.00 in0.0 mm 0.00 in0.0 mm
04:36 AM 39.0°F3.9°C 36.3°F2.4°C 90% 4.0 mph NW6.4 kmh NW 7.8 mph12.6 kmh 24.77 in838.8 mb 0.00 in0.0 mm 0.00 in0.0 mm 0.00 in0.0 mm
04:31 AM 38.7°F3.7°C 36.3°F2.4°C 91% 4.0 mph NW6.4 kmh NW 6.3 mph10.1 kmh 24.77 in838.8 mb 0.00 in0.0 mm 0.00 in0.0 mm 0.00 in0.0 mm
04:26 AM 38.5°F3.6°C 36.1°F2.3°C 91% 4.0 mph NW6.4 kmh NW 4.9 mph7.9 kmh 24.77 in838.8 mb 0.00 in0.0 mm 0.00 in0.0 mm 0.00 in0.0 mm
04:21 AM 38.5°F3.6°C 36.1°F2.3°C 91% 3.0 mph NW4.8 kmh NW 4.9 mph7.9 kmh 24.77 in838.8 mb 0.00 in0.0 mm 0.00 in0.0 mm 0.00 in0.0 mm
04:16 AM 37.9°F3.3°C 35.8°F2.1°C 92% 3.0 mph NW4.8 kmh NW 4.9 mph7.9 kmh 24.77 in838.8 mb 0.00 in0.0 mm 0.00 in0.0 mm 0.00 in0.0 mm
04:11 AM 37.0°F2.8°C 34.9°F1.6°C 92% 2.0 mph NNW3.2 kmh NNW 4.9 mph7.9 kmh 24.77 in838.8 mb 0.00 in0.0 mm 0.00 in0.0 mm 0.00 in0.0 mm
04:06 AM 36.7°F2.6°C 34.5°F1.4°C 92% 2.0 mph NNW3.2 kmh NNW 4.5 mph7.2 kmh 24.77 in838.8 mb 0.00 in0.0 mm 0.00 in0.0 mm 0.00 in0.0 mm
04:01 AM 36.7°F2.6°C 34.5°F1.4°C 92% 2.0 mph NW3.2 kmh NW 4.0 mph6.4 kmh 24.77 in838.8 mb 0.00 in0.0 mm 0.00 in0.0 mm 0.00 in0.0 mm
03:56 AM 36.7°F2.6°C 34.5°F1.4°C 92% 3.0 mph WNW4.8 kmh WNW 4.9 mph7.9 kmh 24.77 in838.8 mb 0.00 in0.0 mm 0.00 in0.0 mm 0.00 in0.0 mm
03:51 AM 36.3°F2.4°C 34.2°F1.2°C 92% 2.0 mph WNW3.2 kmh WNW 4.0 mph6.4 kmh 24.77 in838.8 mb 0.00 in0.0 mm 0.00 in0.0 mm 0.00 in0.0 mm
03:45 AM 36.3°F2.4°C 34.2°F1.2°C 92% 2.0 mph W3.2 kmh W 3.6 mph5.8 kmh 24.77 in838.8 mb 0.00 in0.0 mm 0.00 in0.0 mm 0.00 in0.0 mm
03:40 AM 36.5°F2.5°C 34.7°F1.5°C 93% 2.0 mph WSW3.2 kmh WSW 4.0 mph6.4 kmh 24.77 in838.8 mb 0.00 in0.0 mm 0.00 in0.0 mm 0.00 in0.0 mm
03:35 AM 36.9°F2.7°C 35.1°F1.7°C 93% 2.0 mph WSW3.2 kmh WSW 4.5 mph7.2 kmh 24.77 in838.8 mb 0.00 in0.0 mm 0.00 in0.0 mm 0.00 in0.0 mm
03:30 AM 37.0°F2.8°C 35.2°F1.8°C 93% 2.0 mph WSW3.2 kmh WSW 4.9 mph7.9 kmh 24.77 in838.8 mb 0.00 in0.0 mm 0.00 in0.0 mm 0.00 in0.0 mm
03:25 AM 37.0°F2.8°C 35.2°F1.8°C 93% 1.0 mph WSW1.6 kmh WSW 4.9 mph7.9 kmh 24.77 in838.8 mb 0.00 in0.0 mm 0.00 in0.0 mm 0.00 in0.0 mm
03:20 AM 37.0°F2.8°C 35.2°F1.8°C 93% Calm Calm 3.1 mph5.0 kmh 24.77 in838.8 mb 0.00 in0.0 mm 0.00 in0.0 mm 0.00 in0.0 mm
03:15 AM 37.0°F2.8°C 35.2°F1.8°C 93% 1.0 mph WSW1.6 kmh WSW 3.6 mph5.8 kmh 24.77 in838.8 mb 0.00 in0.0 mm 0.00 in0.0 mm 0.00 in0.0 mm
03:10 AM 36.9°F2.7°C 35.1°F1.7°C 93% 1.0 mph WSW1.6 kmh WSW 3.6 mph5.8 kmh 24.77 in838.8 mb 0.00 in0.0 mm 0.00 in0.0 mm 0.00 in0.0 mm
03:05 AM 37.0°F2.8°C 35.2°F1.8°C 93% 2.0 mph WSW3.2 kmh WSW 4.0 mph6.4 kmh 24.77 in838.8 mb 0.00 in0.0 mm 0.00 in0.0 mm 0.00 in0.0 mm
03:00 AM 37.0°F2.8°C 35.2°F1.8°C 93% 1.0 mph WSW1.6 kmh WSW 4.5 mph7.2 kmh 24.77 in838.8 mb 0.00 in0.0 mm 0.00 in0.0 mm 0.00 in0.0 mm
02:55 AM 37.0°F2.8°C 35.2°F1.8°C 93% 2.0 mph SW3.2 kmh SW 3.6 mph5.8 kmh 24.80 in839.8 mb 0.00 in0.0 mm 0.00 in0.0 mm 0.00 in0.0 mm
02:50 AM 37.2°F2.9°C 35.4°F1.9°C 93% 3.0 mph SSW4.8 kmh SSW 5.8 mph9.3 kmh 24.80 in839.8 mb 0.00 in0.0 mm 0.00 in0.0 mm 0.00 in0.0 mm
02:45 AM 36.9°F2.7°C 34.7°F1.5°C 92% 1.0 mph S1.6 kmh S 4.5 mph7.2 kmh 24.80 in839.8 mb 0.00 in0.0 mm 0.00 in0.0 mm 0.00 in0.0 mm
02:40 AM 36.9°F2.7°C 34.7°F1.5°C 92% 1.0 mph S1.6 kmh S 4.0 mph6.4 kmh 24.77 in838.8 mb 0.00 in0.0 mm 0.00 in0.0 mm 0.00 in0.0 mm
02:35 AM 36.9°F2.7°C 34.7°F1.5°C 92% 1.0 mph SSE1.6 kmh SSE 4.0 mph6.4 kmh 24.77 in838.8 mb 0.00 in0.0 mm 0.00 in0.0 mm 0.00 in0.0 mm
02:30 AM 36.9°F2.7°C 34.7°F1.5°C 92% 3.0 mph SE4.8 kmh SE 5.8 mph9.3 kmh 24.77 in838.8 mb 0.00 in0.0 mm 0.00 in0.0 mm 0.00 in0.0 mm
02:25 AM 36.9°F2.7°C 34.7°F1.5°C 92% 4.0 mph ESE6.4 kmh ESE 7.4 mph11.9 kmh 24.80 in839.8 mb 0.00 in0.0 mm 0.00 in0.0 mm 0.00 in0.0 mm
02:20 AM 36.9°F2.7°C 34.5°F1.4°C 91% 4.0 mph E6.4 kmh E 6.9 mph11.1 kmh 24.80 in839.8 mb 0.00 in0.0 mm 0.00 in0.0 mm 0.00 in0.0 mm
02:15 AM 37.2°F2.9°C 35.1°F1.7°C 92% 2.0 mph S3.2 kmh S 6.7 mph10.8 kmh 24.80 in839.8 mb 0.00 in0.0 mm 0.00 in0.0 mm 0.00 in0.0 mm
02:10 AM 37.4°F3.0°C 35.2°F1.8°C 92% 1.0 mph WSW1.6 kmh WSW 4.5 mph7.2 kmh 24.80 in839.8 mb 0.00 in0.0 mm 0.00 in0.0 mm 0.00 in0.0 mm
02:05 AM 37.4°F3.0°C 35.2°F1.8°C 92% 3.0 mph WSW4.8 kmh WSW 5.8 mph9.3 kmh 24.80 in839.8 mb 0.00 in0.0 mm 0.00 in0.0 mm 0.00 in0.0 mm
02:00 AM 37.4°F3.0°C 35.2°F1.8°C 92% 4.0 mph SW6.4 kmh SW 5.4 mph8.7 kmh 24.80 in839.8 mb 0.00 in0.0 mm 0.00 in0.0 mm 0.00 in0.0 mm
01:55 AM 37.6°F3.1°C 35.4°F1.9°C 92% 4.0 mph S6.4 kmh S 6.3 mph10.1 kmh 24.77 in838.8 mb 0.00 in0.0 mm 0.00 in0.0 mm 0.00 in0.0 mm
01:50 AM 37.6°F3.1°C 35.2°F1.8°C 91% 4.0 mph SE6.4 kmh SE 4.9 mph7.9 kmh 24.77 in838.8 mb 0.00 in0.0 mm 0.00 in0.0 mm 0.00 in0.0 mm
01:45 AM 37.6°F3.1°C 34.9°F1.6°C 90% 3.0 mph SE4.8 kmh SE 5.4 mph8.7 kmh 24.77 in838.8 mb 0.00 in0.0 mm 0.00 in0.0 mm 0.00 in0.0 mm
01:40 AM 37.8°F3.2°C 34.9°F1.6°C 89% 2.0 mph SE3.2 kmh SE 5.4 mph8.7 kmh 24.80 in839.8 mb 0.00 in0.0 mm 0.00 in0.0 mm 0.00 in0.0 mm
01:35 AM 37.9°F3.3°C 35.1°F1.7°C 89% 2.0 mph SE3.2 kmh SE 3.6 mph5.8 kmh 24.80 in839.8 mb 0.00 in0.0 mm 0.00 in0.0 mm 0.00 in0.0 mm
01:30 AM 37.9°F3.3°C 35.1°F1.7°C 89% 3.0 mph SE4.8 kmh SE 5.4 mph8.7 kmh 24.80 in839.8 mb 0.00 in0.0 mm 0.00 in0.0 mm 0.00 in0.0 mm
01:25 AM 38.1°F3.4°C 34.9°F1.6°C 88% 3.0 mph SE4.8 kmh SE 4.5 mph7.2 kmh 24.77 in838.8 mb 0.00 in0.0 mm 0.00 in0.0 mm 0.00 in0.0 mm
01:20 AM 37.9°F3.3°C 34.3°F1.3°C 87% 2.0 mph SE3.2 kmh SE 4.0 mph6.4 kmh 24.77 in838.8 mb 0.00 in0.0 mm 0.00 in0.0 mm 0.00 in0.0 mm
01:15 AM 37.9°F3.3°C 34.3°F1.3°C 87% 2.0 mph SE3.2 kmh SE 3.6 mph5.8 kmh 24.77 in838.8 mb 0.00 in0.0 mm 0.00 in0.0 mm 0.00 in0.0 mm
01:10 AM 37.9°F3.3°C 34.2°F1.2°C 86% 3.0 mph SE4.8 kmh SE 4.9 mph7.9 kmh 24.77 in838.8 mb 0.00 in0.0 mm 0.00 in0.0 mm 0.00 in0.0 mm
01:05 AM 38.1°F3.4°C 33.8°F1.0°C 84% 2.0 mph SE3.2 kmh SE 4.5 mph7.2 kmh 24.77 in838.8 mb 0.00 in0.0 mm 0.00 in0.0 mm 0.00 in0.0 mm
01:00 AM 37.9°F3.3°C 32.9°F0.5°C 82% 1.0 mph SE1.6 kmh SE 3.6 mph5.8 kmh 24.77 in838.8 mb 0.00 in0.0 mm 0.00 in0.0 mm 0.00 in0.0 mm
12:55 AM 37.9°F3.3°C 32.7°F0.4°C 81% 2.0 mph SSE3.2 kmh SSE 4.5 mph7.2 kmh 24.77 in838.8 mb 0.00 in0.0 mm 0.00 in0.0 mm 0.00 in0.0 mm
12:50 AM 37.9°F3.3°C 32.4°F0.2°C 80% 3.0 mph S4.8 kmh S 5.8 mph9.3 kmh 24.77 in838.8 mb 0.00 in0.0 mm 0.00 in0.0 mm 0.00 in0.0 mm
12:45 AM 37.9°F3.3°C 32.0°F0.0°C 79% 3.0 mph E4.8 kmh E 6.7 mph10.8 kmh 24.77 in838.8 mb 0.00 in0.0 mm 0.00 in0.0 mm 0.00 in0.0 mm
12:40 AM 38.8°F3.8°C 32.2°F0.1°C 77% 2.0 mph NNE3.2 kmh NNE 6.3 mph10.1 kmh 24.77 in838.8 mb 0.00 in0.0 mm 0.00 in0.0 mm 0.00 in0.0 mm
12:35 AM 38.8°F3.8°C 32.2°F0.1°C 77% 4.0 mph NNE6.4 kmh NNE 4.5 mph7.2 kmh 24.77 in838.8 mb 0.00 in0.0 mm 0.00 in0.0 mm 0.00 in0.0 mm
12:30 AM 39.2°F4.0°C 32.9°F0.5°C 78% 4.0 mph NNE6.4 kmh NNE 5.8 mph9.3 kmh 24.77 in838.8 mb 0.00 in0.0 mm 0.00 in0.0 mm 0.00 in0.0 mm
12:25 AM 38.8°F3.8°C 32.5°F0.3°C 78% 4.0 mph NNE6.4 kmh NNE 5.8 mph9.3 kmh 24.77 in838.8 mb 0.00 in0.0 mm 0.00 in0.0 mm 0.00 in0.0 mm
12:20 AM 39.2°F4.0°C 32.9°F0.5°C 78% 3.0 mph NNE4.8 kmh NNE 4.5 mph7.2 kmh 24.77 in838.8 mb 0.00 in0.0 mm 0.00 in0.0 mm 0.00 in0.0 mm
12:15 AM 39.2°F4.0°C 32.9°F0.5°C 78% 3.0 mph NNE4.8 kmh NNE 4.5 mph7.2 kmh 24.77 in838.8 mb 0.00 in0.0 mm 0.00 in0.0 mm 0.00 in0.0 mm
12:10 AM 39.2°F4.0°C 32.9°F0.5°C 78% 4.0 mph N6.4 kmh N 5.4 mph8.7 kmh 24.77 in838.8 mb 0.00 in0.0 mm 0.00 in0.0 mm 0.00 in0.0 mm
12:05 AM 38.8°F3.8°C 32.9°F0.5°C 79% 3.0 mph N4.8 kmh N 5.4 mph8.7 kmh 24.77 in838.8 mb 0.00 in0.0 mm 0.00 in0.0 mm 0.00 in0.0 mm
12:00 AM 39.4°F4.1°C 33.8°F1.0°C 80% 1.0 mph N1.6 kmh N 4.5 mph7.2 kmh 24.77 in838.8 mb 0.00 in0.0 mm 0.00 in0.0 mm 0.00 in0.0 mm